Startpagina
METAR-TAF:

METAR-TAF

Vliegvelden :

Luchthaven van Khartoem

Khartoem, Soedan

breedte: 15-36N, lengte: 032-33E, hoogte: 382 m

Actueel weer

Dit bericht is 15 minuten geleden gemaakt, om 06:30 UTC
Wind 6 kt uit het noordnoordwesten
Temperatuur 32°C
Vochtigheid 41%
Druk 1011 hPa
Zicht 10 km of meer
geen wolken onder 1500 m en geen cumulonimbus

METAR: HSSS 160630Z 33006KT CAVOK 32/17 Q1011 NOSIG

Tijdstip: 09:45 (06:45 UTC)

Verwachting

Dit bericht is 1 uur en het 45 minuten geleden gemaakt, om 05:00 UTC
Verwachting geldig van 16 om 06 UTC tot 17 om 12 UTC
Wind 3 kt uit variabele richting
Zicht: 8000 m
Verspreide wolken op 14000 ft
Tijdelijke
van 16 om 11 UTC tot 16 om 15 UTC
Wind 10 kt uit het westzuidwesten met uitschieters tot 22 kt
Zicht 10 km of meer
Verspreide wolken op 4000 ft
Verspreide wolken op 14000 ft

TAF: HSSS 160500Z 1606/1712 VRB03KT 8000 SCT140 TEMPO 1611/1615 24010G22KT 9999 SCT040 SCT140

Waarnemingen en weersverwachtingen van meer dan 4000 vliegvelden (METAR en TAF).

De beschikbare stations zijn de gele en rode punten op de kaart.

Ga met uw muis naar het station om de naam te zien.

Klik dan om waarnemingen en weersverwachtingen te zien.

kaart wijzigen: klik op de groene knoppen met een zwart kruis om in te zoomen, op de groene knop met een streepje om uit te zoomen of op de groene pijlen voor aangrenzende kaarten.


METAR-TAF: